sensor_id;sensor_type;location;lat;lon;timestamp;P1;durP1;ratioP1;P2;durP2;ratioP2
13891;SDS011;7016;48.172;8.058;2022-08-06T00:02:18;6.90;;;4.00;;
13891;SDS011;7016;48.172;8.058;2022-08-06T00:04:46;5.75;;;3.70;;
13891;SDS011;7016;48.172;8.058;2022-08-06T00:07:12;6.15;;;4.72;;
13891;SDS011;7016;48.172;8.058;2022-08-06T00:09:38;7.15;;;4.25;;
13891;SDS011;7016;48.172;8.058;2022-08-06T00:12:04;6.05;;;4.43;;
13891;SDS011;7016;48.172;8.058;2022-08-06T00:14:31;6.75;;;4.30;;
13891;SDS011;7016;48.172;8.058;2022-08-06T00:16:58;6.43;;;4.18;;
13891;SDS011;7016;48.172;8.058;2022-08-06T00:19:23;5.10;;;4.47;;
13891;SDS011;7016;48.172;8.058;2022-08-06T00:21:50;5.55;;;4.00;;
13891;SDS011;7016;48.172;8.058;2022-08-06T00:24:16;6.05;;;4.10;;
13891;SDS011;7016;48.172;8.058;2022-08-06T00:26:43;4.95;;;4.15;;
13891;SDS011;7016;48.172;8.058;2022-08-06T00:29:09;5.50;;;4.30;;
13891;SDS011;7016;48.172;8.058;2022-08-06T00:31:35;4.78;;;4.05;;
13891;SDS011;7016;48.172;8.058;2022-08-06T00:34:01;6.32;;;4.25;;
13891;SDS011;7016;48.172;8.058;2022-08-06T00:36:29;8.90;;;3.92;;
13891;SDS011;7016;48.172;8.058;2022-08-06T00:39:00;5.88;;;3.88;;
13891;SDS011;7016;48.172;8.058;2022-08-06T00:41:28;6.20;;;4.70;;
13891;SDS011;7016;48.172;8.058;2022-08-06T00:43:55;8.23;;;5.35;;
13891;SDS011;7016;48.172;8.058;2022-08-06T00:46:25;7.22;;;4.85;;
13891;SDS011;7016;48.172;8.058;2022-08-06T00:48:51;7.03;;;4.80;;
13891;SDS011;7016;48.172;8.058;2022-08-06T00:51:18;7.80;;;5.10;;
13891;SDS011;7016;48.172;8.058;2022-08-06T00:53:43;8.25;;;5.47;;
13891;SDS011;7016;48.172;8.058;2022-08-06T00:56:09;8.43;;;5.25;;
13891;SDS011;7016;48.172;8.058;2022-08-06T00:58:35;5.95;;;4.72;;
13891;SDS011;7016;48.172;8.058;2022-08-06T01:01:01;8.00;;;5.20;;
13891;SDS011;7016;48.172;8.058;2022-08-06T01:03:27;6.45;;;5.13;;
13891;SDS011;7016;48.172;8.058;2022-08-06T01:05:53;6.68;;;5.10;;
13891;SDS011;7016;48.172;8.058;2022-08-06T01:08:19;9.05;;;5.38;;
13891;SDS011;7016;48.172;8.058;2022-08-06T01:10:45;6.80;;;5.80;;
13891;SDS011;7016;48.172;8.058;2022-08-06T01:13:11;5.75;;;4.97;;
13891;SDS011;7016;48.172;8.058;2022-08-06T01:15:38;7.00;;;5.30;;
13891;SDS011;7016;48.172;8.058;2022-08-06T01:29:22;5.75;;;4.05;;
13891;SDS011;7016;48.172;8.058;2022-08-06T01:31:53;4.97;;;3.53;;
13891;SDS011;7016;48.172;8.058;2022-08-06T01:37:17;5.55;;;3.92;;
13891;SDS011;7016;48.172;8.058;2022-08-06T01:40:04;4.10;;;3.38;;
13891;SDS011;7016;48.172;8.058;2022-08-06T01:42:35;7.53;;;3.95;;
13891;SDS011;7016;48.172;8.058;2022-08-06T01:45:03;6.25;;;3.50;;
13891;SDS011;7016;48.172;8.058;2022-08-06T01:47:34;7.95;;;3.80;;
13891;SDS011;7016;48.172;8.058;2022-08-06T01:50:03;4.95;;;3.17;;
13891;SDS011;7016;48.172;8.058;2022-08-06T01:52:35;5.15;;;3.40;;
13891;SDS011;7016;48.172;8.058;2022-08-06T01:55:09;6.18;;;3.22;;
13891;SDS011;7016;48.172;8.058;2022-08-06T01:57:38;5.20;;;3.25;;
13891;SDS011;7016;48.172;8.058;2022-08-06T02:00:08;7.85;;;3.17;;
13891;SDS011;7016;48.172;8.058;2022-08-06T02:02:34;5.47;;;3.10;;
13891;SDS011;7016;48.172;8.058;2022-08-06T02:05:02;5.70;;;3.17;;
13891;SDS011;7016;48.172;8.058;2022-08-06T02:07:31;7.03;;;3.13;;
13891;SDS011;7016;48.172;8.058;2022-08-06T02:10:00;5.15;;;2.70;;
13891;SDS011;7016;48.172;8.058;2022-08-06T02:12:29;5.80;;;3.10;;
13891;SDS011;7016;48.172;8.058;2022-08-06T02:14:58;7.35;;;2.83;;
13891;SDS011;7016;48.172;8.058;2022-08-06T02:17:35;7.78;;;2.92;;
13891;SDS011;7016;48.172;8.058;2022-08-06T02:20:05;9.65;;;2.90;;
13891;SDS011;7016;48.172;8.058;2022-08-06T02:22:33;4.43;;;2.85;;
13891;SDS011;7016;48.172;8.058;2022-08-06T02:25:03;4.78;;;2.65;;
13891;SDS011;7016;48.172;8.058;2022-08-06T02:27:33;4.18;;;2.70;;
13891;SDS011;7016;48.172;8.058;2022-08-06T02:30:02;7.15;;;2.95;;
13891;SDS011;7016;48.172;8.058;2022-08-06T02:32:28;3.30;;;2.40;;
13891;SDS011;7016;48.172;8.058;2022-08-06T02:34:54;6.50;;;2.60;;
13891;SDS011;7016;48.172;8.058;2022-08-06T02:37:29;3.70;;;2.47;;
13891;SDS011;7016;48.172;8.058;2022-08-06T02:43:00;5.80;;;2.42;;
13891;SDS011;7016;48.172;8.058;2022-08-06T02:50:37;3.30;;;2.03;;
13891;SDS011;7016;48.172;8.058;2022-08-06T02:53:07;5.28;;;2.03;;
13891;SDS011;7016;48.172;8.058;2022-08-06T02:56:03;3.97;;;2.10;;
13891;SDS011;7016;48.172;8.058;2022-08-06T02:58:44;6.40;;;2.05;;
13891;SDS011;7016;48.172;8.058;2022-08-06T03:01:14;3.03;;;1.75;;
13891;SDS011;7016;48.172;8.058;2022-08-06T03:03:45;4.70;;;2.10;;
13891;SDS011;7016;48.172;8.058;2022-08-06T03:06:14;2.58;;;1.65;;
13891;SDS011;7016;48.172;8.058;2022-08-06T03:08:41;4.60;;;1.90;;
13891;SDS011;7016;48.172;8.058;2022-08-06T03:11:08;3.88;;;1.80;;
13891;SDS011;7016;48.172;8.058;2022-08-06T03:13:36;3.08;;;1.75;;
13891;SDS011;7016;48.172;8.058;2022-08-06T03:16:04;2.95;;;1.67;;
13891;SDS011;7016;48.172;8.058;2022-08-06T03:18:30;3.83;;;1.83;;
13891;SDS011;7016;48.172;8.058;2022-08-06T03:20:58;3.40;;;1.80;;
13891;SDS011;7016;48.172;8.058;2022-08-06T03:23:26;3.63;;;1.80;;
13891;SDS011;7016;48.172;8.058;2022-08-06T03:25:54;3.60;;;1.90;;
13891;SDS011;7016;48.172;8.058;2022-08-06T03:28:22;4.38;;;2.00;;
13891;SDS011;7016;48.172;8.058;2022-08-06T03:30:49;3.67;;;1.75;;
13891;SDS011;7016;48.172;8.058;2022-08-06T03:33:15;5.25;;;1.83;;
13891;SDS011;7016;48.172;8.058;2022-08-06T03:35:43;6.07;;;2.17;;
13891;SDS011;7016;48.172;8.058;2022-08-06T03:38:10;3.72;;;1.80;;
13891;SDS011;7016;48.172;8.058;2022-08-06T03:40:38;4.07;;;1.73;;
13891;SDS011;7016;48.172;8.058;2022-08-06T03:43:08;3.25;;;1.67;;
13891;SDS011;7016;48.172;8.058;2022-08-06T03:45:36;3.03;;;1.60;;
13891;SDS011;7016;48.172;8.058;2022-08-06T03:48:04;2.38;;;1.60;;
13891;SDS011;7016;48.172;8.058;2022-08-06T03:50:33;3.20;;;1.70;;
13891;SDS011;7016;48.172;8.058;2022-08-06T03:53:04;2.90;;;1.65;;
13891;SDS011;7016;48.172;8.058;2022-08-06T03:55:34;3.65;;;1.60;;
13891;SDS011;7016;48.172;8.058;2022-08-06T03:58:04;3.72;;;1.60;;
13891;SDS011;7016;48.172;8.058;2022-08-06T04:00:33;3.08;;;1.60;;
13891;SDS011;7016;48.172;8.058;2022-08-06T04:03:04;2.65;;;1.40;;
13891;SDS011;7016;48.172;8.058;2022-08-06T04:05:32;3.30;;;1.30;;
13891;SDS011;7016;48.172;8.058;2022-08-06T04:08:02;3.15;;;1.58;;
13891;SDS011;7016;48.172;8.058;2022-08-06T04:10:33;2.47;;;1.50;;
13891;SDS011;7016;48.172;8.058;2022-08-06T04:13:03;6.25;;;1.75;;
13891;SDS011;7016;48.172;8.058;2022-08-06T04:15:31;3.13;;;1.55;;
13891;SDS011;7016;48.172;8.058;2022-08-06T04:17:57;3.08;;;1.60;;
13891;SDS011;7016;48.172;8.058;2022-08-06T04:20:23;5.75;;;1.80;;
13891;SDS011;7016;48.172;8.058;2022-08-06T04:22:51;4.53;;;1.63;;
13891;SDS011;7016;48.172;8.058;2022-08-06T04:25:17;4.72;;;1.63;;
13891;SDS011;7016;48.172;8.058;2022-08-06T04:27:43;3.95;;;1.33;;
13891;SDS011;7016;48.172;8.058;2022-08-06T04:30:11;3.35;;;1.60;;
13891;SDS011;7016;48.172;8.058;2022-08-06T04:32:38;2.97;;;1.58;;
13891;SDS011;7016;48.172;8.058;2022-08-06T04:35:05;3.78;;;1.60;;
13891;SDS011;7016;48.172;8.058;2022-08-06T04:37:33;3.90;;;1.60;;
13891;SDS011;7016;48.172;8.058;2022-08-06T04:40:02;2.65;;;1.40;;
13891;SDS011;7016;48.172;8.058;2022-08-06T04:42:28;3.40;;;1.70;;
13891;SDS011;7016;48.172;8.058;2022-08-06T04:44:54;5.10;;;1.50;;
13891;SDS011;7016;48.172;8.058;2022-08-06T04:47:20;3.08;;;1.38;;
13891;SDS011;7016;48.172;8.058;2022-08-06T04:49:48;1.77;;;1.02;;
13891;SDS011;7016;48.172;8.058;2022-08-06T04:52:23;4.03;;;1.50;;
13891;SDS011;7016;48.172;8.058;2022-08-06T04:54:51;6.00;;;1.30;;
13891;SDS011;7016;48.172;8.058;2022-08-06T04:57:16;2.83;;;1.40;;
13891;SDS011;7016;48.172;8.058;2022-08-06T04:59:42;4.65;;;1.50;;
13891;SDS011;7016;48.172;8.058;2022-08-06T05:02:09;7.63;;;1.45;;
13891;SDS011;7016;48.172;8.058;2022-08-06T05:04:35;3.72;;;1.30;;
13891;SDS011;7016;48.172;8.058;2022-08-06T05:07:24;6.25;;;1.73;;
13891;SDS011;7016;48.172;8.058;2022-08-06T05:09:50;3.25;;;1.23;;
13891;SDS011;7016;48.172;8.058;2022-08-06T05:15:07;4.22;;;1.40;;
13891;SDS011;7016;48.172;8.058;2022-08-06T05:17:40;3.38;;;1.15;;
13891;SDS011;7016;48.172;8.058;2022-08-06T05:22:52;3.22;;;1.42;;
13891;SDS011;7016;48.172;8.058;2022-08-06T05:25:20;2.58;;;1.20;;
13891;SDS011;7016;48.172;8.058;2022-08-06T05:27:46;2.95;;;1.20;;
13891;SDS011;7016;48.172;8.058;2022-08-06T05:30:12;3.08;;;1.50;;
13891;SDS011;7016;48.172;8.058;2022-08-06T05:32:42;2.30;;;1.20;;
13891;SDS011;7016;48.172;8.058;2022-08-06T05:35:09;3.30;;;1.38;;
13891;SDS011;7016;48.172;8.058;2022-08-06T05:37:35;5.13;;;1.70;;
13891;SDS011;7016;48.172;8.058;2022-08-06T05:40:01;4.03;;;1.50;;
13891;SDS011;7016;48.172;8.058;2022-08-06T05:42:27;2.58;;;1.40;;
13891;SDS011;7016;48.172;8.058;2022-08-06T05:44:52;4.07;;;1.35;;
13891;SDS011;7016;48.172;8.058;2022-08-06T05:47:19;3.35;;;1.15;;
13891;SDS011;7016;48.172;8.058;2022-08-06T05:49:49;1.65;;;1.17;;
13891;SDS011;7016;48.172;8.058;2022-08-06T05:55:04;2.45;;;1.50;;
13891;SDS011;7016;48.172;8.058;2022-08-06T06:00:16;3.70;;;1.42;;
13891;SDS011;7016;48.172;8.058;2022-08-06T06:02:44;2.85;;;1.40;;
13891;SDS011;7016;48.172;8.058;2022-08-06T06:05:12;3.05;;;1.20;;
13891;SDS011;7016;48.172;8.058;2022-08-06T06:07:38;2.33;;;1.25;;
13891;SDS011;7016;48.172;8.058;2022-08-06T06:10:05;3.28;;;1.30;;
13891;SDS011;7016;48.172;8.058;2022-08-06T06:12:33;4.75;;;1.48;;
13891;SDS011;7016;48.172;8.058;2022-08-06T06:15:03;2.63;;;1.30;;
13891;SDS011;7016;48.172;8.058;2022-08-06T06:20:11;3.97;;;1.50;;
13891;SDS011;7016;48.172;8.058;2022-08-06T06:22:46;4.88;;;1.50;;
13891;SDS011;7016;48.172;8.058;2022-08-06T06:25:23;3.08;;;1.50;;
13891;SDS011;7016;48.172;8.058;2022-08-06T06:28:05;3.38;;;1.20;;
13891;SDS011;7016;48.172;8.058;2022-08-06T06:34:04;2.95;;;1.38;;
13891;SDS011;7016;48.172;8.058;2022-08-06T06:36:39;3.25;;;1.40;;
13891;SDS011;7016;48.172;8.058;2022-08-06T06:45:11;3.20;;;1.50;;
13891;SDS011;7016;48.172;8.058;2022-08-06T06:51:31;6.43;;;1.38;;
13891;SDS011;7016;48.172;8.058;2022-08-06T06:54:00;2.47;;;1.35;;
13891;SDS011;7016;48.172;8.058;2022-08-06T06:56:29;3.40;;;1.60;;
13891;SDS011;7016;48.172;8.058;2022-08-06T06:59:18;3.33;;;1.50;;
13891;SDS011;7016;48.172;8.058;2022-08-06T07:01:48;5.30;;;1.67;;
13891;SDS011;7016;48.172;8.058;2022-08-06T07:04:16;4.28;;;1.70;;
13891;SDS011;7016;48.172;8.058;2022-08-06T07:06:43;5.22;;;1.50;;
13891;SDS011;7016;48.172;8.058;2022-08-06T07:09:19;3.90;;;1.60;;
13891;SDS011;7016;48.172;8.058;2022-08-06T07:11:48;3.03;;;1.38;;
13891;SDS011;7016;48.172;8.058;2022-08-06T07:14:18;5.18;;;1.60;;
13891;SDS011;7016;48.172;8.058;2022-08-06T07:16:46;2.53;;;1.40;;
13891;SDS011;7016;48.172;8.058;2022-08-06T07:19:15;3.15;;;1.60;;
13891;SDS011;7016;48.172;8.058;2022-08-06T07:21:45;2.15;;;1.17;;
13891;SDS011;7016;48.172;8.058;2022-08-06T07:24:12;2.80;;;1.60;;
13891;SDS011;7016;48.172;8.058;2022-08-06T07:26:43;3.83;;;1.52;;
13891;SDS011;7016;48.172;8.058;2022-08-06T07:29:11;6.13;;;1.70;;
13891;SDS011;7016;48.172;8.058;2022-08-06T07:31:39;3.75;;;1.60;;
13891;SDS011;7016;48.172;8.058;2022-08-06T07:34:06;3.63;;;1.40;;
13891;SDS011;7016;48.172;8.058;2022-08-06T07:36:33;5.22;;;1.50;;
13891;SDS011;7016;48.172;8.058;2022-08-06T07:39:03;5.57;;;1.40;;
13891;SDS011;7016;48.172;8.058;2022-08-06T07:41:33;3.97;;;1.50;;
13891;SDS011;7016;48.172;8.058;2022-08-06T07:44:00;3.40;;;1.60;;
13891;SDS011;7016;48.172;8.058;2022-08-06T07:46:31;4.43;;;1.50;;
13891;SDS011;7016;48.172;8.058;2022-08-06T07:49:13;3.05;;;1.30;;
13891;SDS011;7016;48.172;8.058;2022-08-06T07:51:40;3.38;;;1.58;;
13891;SDS011;7016;48.172;8.058;2022-08-06T07:54:10;4.10;;;1.27;;
13891;SDS011;7016;48.172;8.058;2022-08-06T07:56:38;3.20;;;1.50;;
13891;SDS011;7016;48.172;8.058;2022-08-06T07:59:06;4.18;;;1.20;;
13891;SDS011;7016;48.172;8.058;2022-08-06T08:01:34;3.13;;;1.40;;
13891;SDS011;7016;48.172;8.058;2022-08-06T08:04:00;4.22;;;1.52;;
13891;SDS011;7016;48.172;8.058;2022-08-06T08:06:45;4.72;;;1.50;;
13891;SDS011;7016;48.172;8.058;2022-08-06T08:09:15;1.92;;;1.20;;
13891;SDS011;7016;48.172;8.058;2022-08-06T08:11:44;3.17;;;1.38;;
13891;SDS011;7016;48.172;8.058;2022-08-06T08:14:12;3.72;;;1.40;;
13891;SDS011;7016;48.172;8.058;2022-08-06T08:16:39;2.20;;;1.20;;
13891;SDS011;7016;48.172;8.058;2022-08-06T08:19:25;3.17;;;1.42;;
13891;SDS011;7016;48.172;8.058;2022-08-06T08:21:56;6.45;;;1.55;;
13891;SDS011;7016;48.172;8.058;2022-08-06T08:24:27;5.75;;;1.33;;
13891;SDS011;7016;48.172;8.058;2022-08-06T08:26:56;3.67;;;1.20;;
13891;SDS011;7016;48.172;8.058;2022-08-06T08:29:23;2.97;;;1.40;;
13891;SDS011;7016;48.172;8.058;2022-08-06T08:31:48;3.33;;;1.30;;
13891;SDS011;7016;48.172;8.058;2022-08-06T08:34:14;2.80;;;1.30;;
13891;SDS011;7016;48.172;8.058;2022-08-06T08:36:40;4.82;;;1.35;;
13891;SDS011;7016;48.172;8.058;2022-08-06T08:39:06;5.88;;;1.40;;
13891;SDS011;7016;48.172;8.058;2022-08-06T08:41:33;6.50;;;1.50;;
13891;SDS011;7016;48.172;8.058;2022-08-06T08:44:03;4.85;;;1.63;;
13891;SDS011;7016;48.172;8.058;2022-08-06T08:46:40;3.00;;;1.40;;
13891;SDS011;7016;48.172;8.058;2022-08-06T08:49:10;5.60;;;1.42;;
13891;SDS011;7016;48.172;8.058;2022-08-06T08:51:43;3.17;;;1.40;;
13891;SDS011;7016;48.172;8.058;2022-08-06T08:54:13;3.05;;;1.20;;
13891;SDS011;7016;48.172;8.058;2022-08-06T08:56:42;8.65;;;1.40;;
13891;SDS011;7016;48.172;8.058;2022-08-06T08:59:09;2.63;;;1.15;;
13891;SDS011;7016;48.172;8.058;2022-08-06T09:01:35;3.15;;;1.30;;
13891;SDS011;7016;48.172;8.058;2022-08-06T09:04:02;3.85;;;1.33;;
13891;SDS011;7016;48.172;8.058;2022-08-06T09:06:28;3.63;;;1.33;;
13891;SDS011;7016;48.172;8.058;2022-08-06T09:08:55;4.10;;;1.38;;
13891;SDS011;7016;48.172;8.058;2022-08-06T09:11:27;3.33;;;1.40;;
13891;SDS011;7016;48.172;8.058;2022-08-06T09:13:54;3.10;;;1.10;;
13891;SDS011;7016;48.172;8.058;2022-08-06T09:16:20;2.83;;;1.17;;
13891;SDS011;7016;48.172;8.058;2022-08-06T09:18:45;4.47;;;1.40;;
13891;SDS011;7016;48.172;8.058;2022-08-06T09:21:12;4.45;;;1.58;;
13891;SDS011;7016;48.172;8.058;2022-08-06T09:23:37;3.83;;;1.33;;
13891;SDS011;7016;48.172;8.058;2022-08-06T09:26:05;3.88;;;1.40;;
13891;SDS011;7016;48.172;8.058;2022-08-06T09:28:33;4.45;;;1.27;;
13891;SDS011;7016;48.172;8.058;2022-08-06T09:31:11;3.42;;;1.25;;
13891;SDS011;7016;48.172;8.058;2022-08-06T09:34:04;4.28;;;1.20;;
13891;SDS011;7016;48.172;8.058;2022-08-06T09:36:40;3.08;;;1.38;;
13891;SDS011;7016;48.172;8.058;2022-08-06T09:39:07;3.20;;;1.40;;
13891;SDS011;7016;48.172;8.058;2022-08-06T09:41:33;3.95;;;1.30;;
13891;SDS011;7016;48.172;8.058;2022-08-06T09:44:01;2.53;;;1.20;;
13891;SDS011;7016;48.172;8.058;2022-08-06T09:46:37;5.07;;;1.40;;
13891;SDS011;7016;48.172;8.058;2022-08-06T09:49:06;2.40;;;1.25;;
13891;SDS011;7016;48.172;8.058;2022-08-06T09:51:32;3.50;;;1.50;;
13891;SDS011;7016;48.172;8.058;2022-08-06T09:54:00;2.95;;;1.40;;
13891;SDS011;7016;48.172;8.058;2022-08-06T09:56:28;4.47;;;1.40;;
13891;SDS011;7016;48.172;8.058;2022-08-06T09:59:01;4.50;;;1.48;;
13891;SDS011;7016;48.172;8.058;2022-08-06T10:01:52;5.03;;;1.50;;
13891;SDS011;7016;48.172;8.058;2022-08-06T10:04:24;2.97;;;1.67;;
13891;SDS011;7016;48.172;8.058;2022-08-06T10:07:00;4.88;;;1.70;;
13891;SDS011;7016;48.172;8.058;2022-08-06T10:09:27;4.90;;;1.20;;
13891;SDS011;7016;48.172;8.058;2022-08-06T10:11:56;3.70;;;1.23;;
13891;SDS011;7016;48.172;8.058;2022-08-06T10:14:23;3.45;;;1.25;;
13891;SDS011;7016;48.172;8.058;2022-08-06T10:19:36;3.90;;;1.35;;
13891;SDS011;7016;48.172;8.058;2022-08-06T10:22:11;5.38;;;1.60;;
13891;SDS011;7016;48.172;8.058;2022-08-06T10:25:00;3.45;;;1.60;;
13891;SDS011;7016;48.172;8.058;2022-08-06T10:27:30;4.72;;;1.42;;
13891;SDS011;7016;48.172;8.058;2022-08-06T10:30:01;2.17;;;1.30;;
13891;SDS011;7016;48.172;8.058;2022-08-06T10:32:47;4.80;;;1.38;;
13891;SDS011;7016;48.172;8.058;2022-08-06T10:35:20;4.70;;;1.52;;
13891;SDS011;7016;48.172;8.058;2022-08-06T10:37:52;3.03;;;1.45;;
13891;SDS011;7016;48.172;8.058;2022-08-06T10:40:23;5.65;;;1.52;;
13891;SDS011;7016;48.172;8.058;2022-08-06T10:42:52;3.97;;;1.40;;
13891;SDS011;7016;48.172;8.058;2022-08-06T10:45:18;5.45;;;1.52;;
13891;SDS011;7016;48.172;8.058;2022-08-06T10:47:45;2.58;;;1.40;;
13891;SDS011;7016;48.172;8.058;2022-08-06T10:50:12;6.70;;;1.95;;
13891;SDS011;7016;48.172;8.058;2022-08-06T10:52:43;3.30;;;1.30;;
13891;SDS011;7016;48.172;8.058;2022-08-06T10:55:09;3.97;;;1.42;;
13891;SDS011;7016;48.172;8.058;2022-08-06T10:57:38;2.90;;;1.48;;
13891;SDS011;7016;48.172;8.058;2022-08-06T11:00:08;3.55;;;1.55;;
13891;SDS011;7016;48.172;8.058;2022-08-06T11:05:38;2.78;;;1.40;;
13891;SDS011;7016;48.172;8.058;2022-08-06T11:15:52;7.97;;;1.50;;
13891;SDS011;7016;48.172;8.058;2022-08-06T11:18:19;4.25;;;1.30;;
13891;SDS011;7016;48.172;8.058;2022-08-06T11:20:46;6.05;;;1.63;;
13891;SDS011;7016;48.172;8.058;2022-08-06T11:25:59;4.05;;;1.65;;
13891;SDS011;7016;48.172;8.058;2022-08-06T11:31:02;5.43;;;1.40;;
13891;SDS011;7016;48.172;8.058;2022-08-06T12:02:10;4.40;;;1.40;;
13891;SDS011;7016;48.172;8.058;2022-08-06T12:04:44;6.28;;;1.50;;
13891;SDS011;7016;48.172;8.058;2022-08-06T12:09:41;5.07;;;1.70;;
13891;SDS011;7016;48.172;8.058;2022-08-06T12:14:54;3.13;;;1.50;;
13891;SDS011;7016;48.172;8.058;2022-08-06T12:17:22;2.88;;;1.40;;
13891;SDS011;7016;48.172;8.058;2022-08-06T12:19:50;2.30;;;1.50;;
13891;SDS011;7016;48.172;8.058;2022-08-06T12:22:19;3.05;;;1.60;;
13891;SDS011;7016;48.172;8.058;2022-08-06T12:24:54;4.05;;;1.42;;
13891;SDS011;7016;48.172;8.058;2022-08-06T12:27:22;3.05;;;1.30;;
13891;SDS011;7016;48.172;8.058;2022-08-06T12:29:53;4.63;;;1.60;;
13891;SDS011;7016;48.172;8.058;2022-08-06T12:32:32;4.82;;;1.63;;
13891;SDS011;7016;48.172;8.058;2022-08-06T12:35:00;2.35;;;1.42;;
13891;SDS011;7016;48.172;8.058;2022-08-06T12:37:41;2.20;;;1.40;;
13891;SDS011;7016;48.172;8.058;2022-08-06T12:40:09;4.22;;;1.48;;
13891;SDS011;7016;48.172;8.058;2022-08-06T12:42:49;2.67;;;1.35;;
13891;SDS011;7016;48.172;8.058;2022-08-06T12:45:22;5.45;;;1.50;;
13891;SDS011;7016;48.172;8.058;2022-08-06T12:47:56;3.37;;;1.50;;
13891;SDS011;7016;48.172;8.058;2022-08-06T12:50:25;3.65;;;1.50;;
13891;SDS011;7016;48.172;8.058;2022-08-06T12:53:07;3.67;;;1.70;;
13891;SDS011;7016;48.172;8.058;2022-08-06T12:55:36;2.72;;;1.60;;
13891;SDS011;7016;48.172;8.058;2022-08-06T12:58:06;5.93;;;1.60;;
13891;SDS011;7016;48.172;8.058;2022-08-06T13:00:34;7.43;;;1.35;;
13891;SDS011;7016;48.172;8.058;2022-08-06T13:03:02;4.93;;;1.40;;
13891;SDS011;7016;48.172;8.058;2022-08-06T13:05:28;3.10;;;1.55;;
13891;SDS011;7016;48.172;8.058;2022-08-06T13:07:55;5.18;;;1.40;;
13891;SDS011;7016;48.172;8.058;2022-08-06T13:10:22;3.50;;;1.58;;
13891;SDS011;7016;48.172;8.058;2022-08-06T13:12:59;4.47;;;1.70;;
13891;SDS011;7016;48.172;8.058;2022-08-06T13:15:28;5.00;;;1.55;;
13891;SDS011;7016;48.172;8.058;2022-08-06T13:18:02;5.25;;;1.50;;
13891;SDS011;7016;48.172;8.058;2022-08-06T13:20:39;6.05;;;1.70;;
13891;SDS011;7016;48.172;8.058;2022-08-06T13:23:10;3.05;;;1.70;;
13891;SDS011;7016;48.172;8.058;2022-08-06T13:25:41;2.92;;;1.30;;
13891;SDS011;7016;48.172;8.058;2022-08-06T13:28:08;2.90;;;1.48;;
13891;SDS011;7016;48.172;8.058;2022-08-06T13:30:35;3.45;;;1.50;;
13891;SDS011;7016;48.172;8.058;2022-08-06T13:36:06;4.93;;;1.70;;
13891;SDS011;7016;48.172;8.058;2022-08-06T13:38:34;3.83;;;1.45;;
13891;SDS011;7016;48.172;8.058;2022-08-06T13:41:01;2.75;;;1.58;;
13891;SDS011;7016;48.172;8.058;2022-08-06T13:43:38;3.90;;;1.50;;
13891;SDS011;7016;48.172;8.058;2022-08-06T13:46:08;5.35;;;1.60;;
13891;SDS011;7016;48.172;8.058;2022-08-06T13:48:46;4.20;;;1.58;;
13891;SDS011;7016;48.172;8.058;2022-08-06T13:51:14;6.40;;;2.00;;
13891;SDS011;7016;48.172;8.058;2022-08-06T13:53:41;4.05;;;1.63;;
13891;SDS011;7016;48.172;8.058;2022-08-06T13:56:07;2.95;;;1.50;;
13891;SDS011;7016;48.172;8.058;2022-08-06T13:58:33;3.42;;;1.58;;
13891;SDS011;7016;48.172;8.058;2022-08-06T14:00:59;2.63;;;1.40;;
13891;SDS011;7016;48.172;8.058;2022-08-06T14:03:25;2.35;;;1.45;;
13891;SDS011;7016;48.172;8.058;2022-08-06T14:05:52;3.15;;;1.90;;
13891;SDS011;7016;48.172;8.058;2022-08-06T14:08:18;3.53;;;1.55;;
13891;SDS011;7016;48.172;8.058;2022-08-06T14:10:44;7.70;;;1.65;;
13891;SDS011;7016;48.172;8.058;2022-08-06T14:13:10;5.53;;;1.90;;
13891;SDS011;7016;48.172;8.058;2022-08-06T14:15:42;2.88;;;1.60;;
13891;SDS011;7016;48.172;8.058;2022-08-06T14:18:16;3.30;;;1.58;;
13891;SDS011;7016;48.172;8.058;2022-08-06T14:20:43;3.58;;;1.55;;
13891;SDS011;7016;48.172;8.058;2022-08-06T14:23:09;3.95;;;1.48;;
13891;SDS011;7016;48.172;8.058;2022-08-06T14:25:36;2.95;;;1.85;;
13891;SDS011;7016;48.172;8.058;2022-08-06T14:28:02;5.47;;;1.60;;
13891;SDS011;7016;48.172;8.058;2022-08-06T14:30:28;4.82;;;1.50;;
13891;SDS011;7016;48.172;8.058;2022-08-06T14:32:54;3.60;;;1.38;;
13891;SDS011;7016;48.172;8.058;2022-08-06T14:35:20;3.58;;;1.70;;
13891;SDS011;7016;48.172;8.058;2022-08-06T14:37:46;4.28;;;1.73;;
13891;SDS011;7016;48.172;8.058;2022-08-06T14:40:13;3.13;;;1.27;;
13891;SDS011;7016;48.172;8.058;2022-08-06T14:42:39;5.43;;;1.70;;
13891;SDS011;7016;48.172;8.058;2022-08-06T14:45:24;3.70;;;1.40;;
13891;SDS011;7016;48.172;8.058;2022-08-06T14:47:50;3.58;;;1.40;;
13891;SDS011;7016;48.172;8.058;2022-08-06T14:50:17;5.18;;;1.50;;
13891;SDS011;7016;48.172;8.058;2022-08-06T14:52:44;4.30;;;1.52;;
13891;SDS011;7016;48.172;8.058;2022-08-06T14:55:10;4.40;;;1.60;;
13891;SDS011;7016;48.172;8.058;2022-08-06T14:57:36;5.93;;;1.52;;
13891;SDS011;7016;48.172;8.058;2022-08-06T15:00:04;7.13;;;1.73;;
13891;SDS011;7016;48.172;8.058;2022-08-06T15:02:31;4.07;;;1.38;;
13891;SDS011;7016;48.172;8.058;2022-08-06T15:04:57;5.05;;;1.75;;
13891;SDS011;7016;48.172;8.058;2022-08-06T15:07:23;3.78;;;1.50;;
13891;SDS011;7016;48.172;8.058;2022-08-06T15:09:49;4.75;;;1.42;;
13891;SDS011;7016;48.172;8.058;2022-08-06T15:12:15;4.18;;;1.60;;
13891;SDS011;7016;48.172;8.058;2022-08-06T15:14:41;3.80;;;1.67;;
13891;SDS011;7016;48.172;8.058;2022-08-06T15:17:07;2.95;;;1.63;;
13891;SDS011;7016;48.172;8.058;2022-08-06T15:19:33;2.90;;;1.65;;
13891;SDS011;7016;48.172;8.058;2022-08-06T15:21:58;3.70;;;1.55;;
13891;SDS011;7016;48.172;8.058;2022-08-06T15:24:24;4.68;;;1.50;;
13891;SDS011;7016;48.172;8.058;2022-08-06T15:26:52;4.78;;;1.50;;
13891;SDS011;7016;48.172;8.058;2022-08-06T15:29:19;3.78;;;1.80;;
13891;SDS011;7016;48.172;8.058;2022-08-06T15:31:46;3.38;;;1.73;;
13891;SDS011;7016;48.172;8.058;2022-08-06T15:34:12;3.50;;;1.75;;
13891;SDS011;7016;48.172;8.058;2022-08-06T15:36:38;5.05;;;1.73;;
13891;SDS011;7016;48.172;8.058;2022-08-06T15:39:04;4.53;;;1.45;;
13891;SDS011;7016;48.172;8.058;2022-08-06T15:41:30;2.92;;;1.50;;
13891;SDS011;7016;48.172;8.058;2022-08-06T15:43:57;3.92;;;1.52;;
13891;SDS011;7016;48.172;8.058;2022-08-06T15:46:23;2.83;;;1.50;;
13891;SDS011;7016;48.172;8.058;2022-08-06T15:48:48;6.85;;;1.75;;
13891;SDS011;7016;48.172;8.058;2022-08-06T15:51:15;3.85;;;1.40;;
13891;SDS011;7016;48.172;8.058;2022-08-06T15:53:46;5.15;;;1.77;;
13891;SDS011;7016;48.172;8.058;2022-08-06T15:56:12;3.33;;;1.40;;
13891;SDS011;7016;48.172;8.058;2022-08-06T15:58:37;4.45;;;1.80;;
13891;SDS011;7016;48.172;8.058;2022-08-06T16:01:03;5.00;;;1.77;;
13891;SDS011;7016;48.172;8.058;2022-08-06T16:03:29;3.75;;;1.48;;
13891;SDS011;7016;48.172;8.058;2022-08-06T16:05:55;8.80;;;1.90;;
13891;SDS011;7016;48.172;8.058;2022-08-06T16:08:21;20.83;;;3.35;;
13891;SDS011;7016;48.172;8.058;2022-08-06T16:10:47;4.35;;;1.55;;
13891;SDS011;7016;48.172;8.058;2022-08-06T16:13:14;2.78;;;1.40;;
13891;SDS011;7016;48.172;8.058;2022-08-06T16:15:48;3.63;;;1.58;;
13891;SDS011;7016;48.172;8.058;2022-08-06T16:18:18;5.30;;;1.65;;
13891;SDS011;7016;48.172;8.058;2022-08-06T16:20:46;3.45;;;1.58;;
13891;SDS011;7016;48.172;8.058;2022-08-06T16:23:13;4.60;;;1.60;;
13891;SDS011;7016;48.172;8.058;2022-08-06T16:25:40;5.40;;;1.48;;
13891;SDS011;7016;48.172;8.058;2022-08-06T16:28:07;2.80;;;1.48;;
13891;SDS011;7016;48.172;8.058;2022-08-06T16:30:34;4.75;;;1.80;;
13891;SDS011;7016;48.172;8.058;2022-08-06T16:33:00;5.15;;;1.60;;
13891;SDS011;7016;48.172;8.058;2022-08-06T16:35:26;3.55;;;1.40;;
13891;SDS011;7016;48.172;8.058;2022-08-06T16:37:53;3.38;;;1.60;;
13891;SDS011;7016;48.172;8.058;2022-08-06T16:40:19;4.35;;;1.73;;
13891;SDS011;7016;48.172;8.058;2022-08-06T16:42:46;3.20;;;1.70;;
13891;SDS011;7016;48.172;8.058;2022-08-06T16:45:12;4.15;;;1.60;;
13891;SDS011;7016;48.172;8.058;2022-08-06T16:47:39;6.72;;;1.60;;
13891;SDS011;7016;48.172;8.058;2022-08-06T16:50:05;4.82;;;1.50;;
13891;SDS011;7016;48.172;8.058;2022-08-06T16:52:31;4.80;;;1.73;;
13891;SDS011;7016;48.172;8.058;2022-08-06T16:54:57;7.22;;;1.67;;
13891;SDS011;7016;48.172;8.058;2022-08-06T16:57:23;52.30;;;30.67;;